Time;durP1;ratioP1;P1;durP2;ratioP2;P2;SDS_P1;SDS_P2;PMS_P1;PMS_P2;Temp;Humidity;BMP_temperature;BMP_pressure;BME280_temperature;BME280_humidity;BME280_pressure;Samples;Min_cycle;Max_cycle;Signal;HPM_P1;HPM_P2
2022/01/24 00:00:17;;;;;;;18.10;8.70;;;-0.10;99.90;;;;;;4992820;28;20212;-55
2022/01/24 00:02:45;;;;;;;15.20;8.23;;;-0.10;99.90;;;;;;4988979;28;20457;-53
2022/01/24 00:05:13;;;;;;;16.33;9.03;;;-0.20;99.90;;;;;;4982365;28;20475;-53
2022/01/24 00:07:38;;;;;;;15.87;8.43;;;-0.20;99.90;;;;;;4987921;28;20442;-54
2022/01/24 00:10:09;;;;;;;22.13;9.33;;;-0.20;99.90;;;;;;4979522;28;20428;-53
2022/01/24 00:15:47;;;;;;;14.53;7.83;;;-0.10;99.90;;;;;;4982221;28;20508;-54
2022/01/24 00:18:12;;;;;;;18.77;8.60;;;-0.10;99.90;;;;;;4979729;28;20580;-54
2022/01/24 00:28:50;;;;;;;15.87;7.60;;;-0.10;99.90;;;;;;4993228;28;20847;-54
2022/01/24 00:31:16;;;;;;;15.30;7.77;;;-0.10;99.90;;;;;;4991172;28;20462;-54
2022/01/24 00:33:41;;;;;;;12.60;7.97;;;-0.10;99.90;;;;;;4998560;28;20228;-50
2022/01/24 00:36:07;;;;;;;16.03;8.10;;;0.00;99.90;;;;;;4996464;28;20251;-52
2022/01/24 00:38:33;;;;;;;11.97;7.60;;;-0.10;99.90;;;;;;4991471;28;20643;-54
2022/01/24 00:40:59;;;;;;;11.73;7.33;;;0.00;99.90;;;;;;4994718;28;20252;-54
2022/01/24 00:43:47;;;;;;;19.37;8.03;;;0.00;99.90;;;;;;4986986;28;20434;-54
2022/01/24 00:46:30;;;;;;;19.27;8.90;;;0.00;99.90;;;;;;4989602;28;20225;-53
2022/01/24 00:56:51;;;;;;;18.37;9.90;;;0.00;99.90;;;;;;4988908;28;20542;-55
2022/01/24 00:59:16;;;;;;;18.80;9.17;;;0.00;99.90;;;;;;4991787;28;20775;-54
2022/01/24 01:01:42;;;;;;;19.17;9.27;;;0.00;99.90;;;;;;4989518;28;20497;-54
2022/01/24 01:04:08;;;;;;;14.67;9.10;;;0.00;99.90;;;;;;4991740;28;20230;-55
2022/01/24 01:06:34;;;;;;;14.27;8.20;;;0.00;99.90;;;;;;4981114;28;20632;-55
2022/01/24 01:19:57;;;;;;;17.13;9.43;;;0.00;99.90;;;;;;4990535;28;20464;-53
2022/01/24 01:22:23;;;;;;;23.20;10.90;;;0.00;99.90;;;;;;4985820;28;20489;-54
2022/01/24 01:24:52;;;;;;;19.97;10.50;;;0.00;99.90;;;;;;4992403;28;20899;-53
2022/01/24 01:27:24;;;;;;;20.27;10.40;;;0.00;99.90;;;;;;4993180;28;20238;-52
2022/01/24 01:30:14;;;;;;;18.80;11.07;;;0.00;99.90;;;;;;4990888;28;20473;-51
2022/01/24 01:33:00;;;;;;;16.03;8.97;;;-0.10;99.90;;;;;;4980662;28;20470;-54
2022/01/24 01:35:45;;;;;;;17.97;9.60;;;-0.10;99.90;;;;;;4991675;28;20418;-55
2022/01/24 01:57:01;;;;;;;18.20;9.23;;;-0.20;99.90;;;;;;4979046;28;20438;-54
2022/01/24 01:59:27;;;;;;;16.20;9.20;;;-0.20;99.90;;;;;;4990828;28;20430;-53
2022/01/24 02:01:53;;;;;;;16.67;8.63;;;-0.20;99.90;;;;;;4988882;28;20463;-54
2022/01/24 02:04:19;;;;;;;19.03;8.53;;;-0.20;99.90;;;;;;4987308;28;20206;-53
2022/01/24 02:06:45;;;;;;;16.37;8.53;;;-0.20;99.90;;;;;;4988644;28;20807;-51
2022/01/24 02:09:12;;;;;;;14.50;8.60;;;-0.30;99.90;;;;;;4988666;28;20438;-54
2022/01/24 02:11:38;;;;;;;13.30;8.13;;;-0.30;99.90;;;;;;4990374;28;20221;-54
2022/01/24 02:14:10;;;;;;;15.17;8.50;;;-0.30;99.90;;;;;;4990809;28;20522;-53
2022/01/24 02:19:12;;;;;;;14.13;8.10;;;-0.30;99.90;;;;;;4988147;28;21157;-54
2022/01/24 02:22:05;;;;;;;13.27;7.83;;;-0.30;99.90;;;;;;5005865;23;20492;-60
2022/01/24 02:24:38;;;;;;;11.30;6.33;;;-0.30;99.90;;;;;;5025971;28;20429;-59
2022/01/24 02:27:05;;;;;;;10.03;6.60;;;-0.20;99.90;;;;;;5029133;28;20520;-61
2022/01/24 02:31:56;;;;;;;12.40;6.87;;;-0.20;99.90;;;;;;5029122;28;20472;-60
2022/01/24 02:34:33;;;;;;;11.83;6.20;;;-0.20;99.90;;;;;;5026474;28;20227;-61
2022/01/24 02:37:02;;;;;;;13.63;6.23;;;-0.20;99.90;;;;;;5026535;28;20503;-59
2022/01/24 02:50:47;;;;;;;12.37;6.80;;;-0.10;99.90;;;;;;5024969;28;20448;-61
2022/01/24 02:53:07;;;;;;;10.10;5.60;;;-0.10;99.90;;;;;;5026947;28;20483;-61
2022/01/24 02:55:36;;;;;;;13.50;6.27;;;-0.10;99.90;;;;;;5024829;28;21004;-61
2022/01/24 02:58:02;;;;;;;10.43;5.87;;;-0.10;99.90;;;;;;5024480;28;20243;-60
2022/01/24 03:00:27;;;;;;;11.30;6.30;;;-0.10;99.90;;;;;;5017124;28;20435;-60
2022/01/24 03:02:53;;;;;;;10.77;6.63;;;-0.10;99.90;;;;;;5028894;28;20840;-60
2022/01/24 03:05:19;;;;;;;14.00;6.73;;;-0.10;99.90;;;;;;5030432;28;20254;-60
2022/01/24 03:07:44;;;;;;;12.70;7.23;;;-0.10;99.90;;;;;;5040707;28;20188;-60
2022/01/24 03:10:22;;;;;;;10.53;6.57;;;-0.10;99.90;;;;;;5012889;28;20273;-61
2022/01/24 03:12:58;;;;;;;8.40;5.80;;;-0.10;99.90;;;;;;5017421;28;20209;-60
2022/01/24 03:15:23;;;;;;;13.20;7.27;;;-0.10;99.90;;;;;;5032662;28;20453;-60
2022/01/24 03:17:49;;;;;;;11.27;6.50;;;-0.10;99.90;;;;;;5020306;28;20929;-60
2022/01/24 03:20:15;;;;;;;11.70;6.93;;;-0.20;99.90;;;;;;5033476;28;20276;-60
2022/01/24 03:22:40;;;;;;;12.47;6.67;;;-0.20;99.90;;;;;;5021192;28;20718;-59
2022/01/24 03:25:06;;;;;;;12.03;6.83;;;-0.20;99.90;;;;;;5032212;28;20208;-60
2022/01/24 03:27:32;;;;;;;10.97;6.47;;;-0.20;99.90;;;;;;5021672;28;20265;-60
2022/01/24 03:29:58;;;;;;;14.90;6.77;;;-0.20;99.90;;;;;;5024663;28;20596;-58
2022/01/24 03:32:23;;;;;;;9.70;6.47;;;-0.30;99.90;;;;;;5025746;28;20222;-60
2022/01/24 03:34:50;;;;;;;12.77;7.00;;;-0.30;99.90;;;;;;5026695;28;20180;-59
2022/01/24 03:37:16;;;;;;;9.10;5.77;;;-0.30;99.90;;;;;;5026222;28;20628;-60
2022/01/24 03:39:41;;;;;;;12.50;6.73;;;-0.40;99.90;;;;;;5027532;28;20461;-59
2022/01/24 03:42:07;;;;;;;12.17;6.43;;;-0.40;99.90;;;;;;5026208;28;20197;-59
2022/01/24 03:44:33;;;;;;;11.00;5.73;;;-0.40;99.90;;;;;;5041217;28;20205;-60
2022/01/24 03:52:10;;;;;;;11.40;5.80;;;-0.50;99.90;;;;;;5019405;28;20217;-60
2022/01/24 03:54:36;;;;;;;7.87;5.30;;;-0.50;99.90;;;;;;5022255;28;20828;-59
2022/01/24 03:57:03;;;;;;;8.33;5.63;;;-0.50;99.90;;;;;;5028310;28;20174;-59
2022/01/24 03:59:31;;;;;;;9.33;5.60;;;-0.50;99.90;;;;;;5026996;28;20429;-60
2022/01/24 04:01:59;;;;;;;8.50;5.40;;;-0.50;99.90;;;;;;5024147;28;20452;-60
2022/01/24 04:04:26;;;;;;;9.77;5.40;;;-0.60;99.90;;;;;;5032777;28;20753;-60
2022/01/24 04:06:51;;;;;;;9.50;5.47;;;-0.50;99.90;;;;;;5026818;28;20446;-60
2022/01/24 04:09:17;;;;;;;10.30;5.80;;;-0.60;99.90;;;;;;5034735;28;20436;-59
2022/01/24 04:11:43;;;;;;;10.77;5.80;;;-0.50;99.90;;;;;;5027432;28;20825;-60
2022/01/24 04:15:06;;;;;;;10.97;5.97;;;-0.50;99.90;;;;;;5023471;28;20174;-60
2022/01/24 04:22:15;;;;;;;10.80;5.27;;;-0.50;99.90;;;;;;5031148;28;21059;-58
2022/01/24 04:24:42;;;;;;;10.63;5.47;;;-0.60;99.90;;;;;;5025752;28;21179;-60
2022/01/24 04:27:09;;;;;;;6.73;4.97;;;-0.60;99.90;;;;;;5025306;28;20432;-60
2022/01/24 04:29:35;;;;;;;10.20;6.13;;;-0.60;99.90;;;;;;5028911;28;20428;-59
2022/01/24 04:32:01;;;;;;;8.50;5.63;;;-0.70;99.90;;;;;;5023517;28;20546;-59
2022/01/24 04:34:27;;;;;;;12.83;5.67;;;-0.70;99.90;;;;;;5041261;28;20894;-60
2022/01/24 04:36:52;;;;;;;12.13;6.80;;;-0.70;99.90;;;;;;5019119;28;20954;-60
2022/01/24 04:39:19;;;;;;;10.20;6.10;;;-0.70;99.90;;;;;;5033021;28;20173;-60
2022/01/24 04:41:48;;;;;;;8.43;5.43;;;-0.80;99.90;;;;;;5025772;28;20256;-60
2022/01/24 04:44:47;;;;;;;7.83;5.30;;;-0.80;99.90;;;;;;5023906;28;20436;-60
2022/01/24 04:47:47;;;;;;;10.80;5.30;;;-0.80;99.90;;;;;;5027435;28;20515;-60
2022/01/24 04:50:42;;;;;;;9.60;6.63;;;-0.80;99.90;;;;;;5022214;28;20447;-60
2022/01/24 04:53:27;;;;;;;8.37;5.27;;;-0.80;99.90;;;;;;5018690;28;20486;-58
2022/01/24 04:55:53;;;;;;;8.67;5.40;;;-0.90;99.90;;;;;;5021941;28;20446;-60
2022/01/24 04:58:18;;;;;;;14.90;8.50;;;-0.90;99.90;;;;;;5016495;28;20435;-61
2022/01/24 05:00:44;;;;;;;26.30;12.73;;;-0.90;99.90;;;;;;5019892;28;20185;-61
2022/01/24 05:03:09;;;;;;;16.80;8.70;;;-0.90;99.90;;;;;;5019654;28;20204;-60
2022/01/24 05:05:35;;;;;;;11.13;5.83;;;-0.90;99.90;;;;;;5020437;28;20182;-59
2022/01/24 05:08:04;;;;;;;9.63;6.03;;;-0.90;99.90;;;;;;5017972;28;20181;-60
2022/01/24 05:10:39;;;;;;;11.80;5.90;;;-0.90;99.90;;;;;;5023097;28;20265;-61
2022/01/24 05:23:55;;;;;;;13.00;6.17;;;-1.10;99.90;;;;;;5023837;28;20479;-61
2022/01/24 05:26:21;;;;;;;14.90;7.20;;;-1.10;99.90;;;;;;5023915;28;20530;-60
2022/01/24 05:28:46;;;;;;;11.97;6.43;;;-1.10;99.90;;;;;;5020071;28;20272;-60
2022/01/24 05:31:12;;;;;;;11.93;6.40;;;-1.20;99.90;;;;;;5019795;28;20595;-61
2022/01/24 05:33:38;;;;;;;12.70;7.20;;;-1.20;99.90;;;;;;5020264;28;20674;-61
2022/01/24 05:36:04;;;;;;;24.70;11.67;;;-1.20;99.90;;;;;;5018683;28;20184;-62
2022/01/24 05:38:29;;;;;;;12.10;7.70;;;-1.20;99.90;;;;;;5026709;28;20627;-61
2022/01/24 05:40:55;;;;;;;12.63;7.07;;;-1.30;99.90;;;;;;5018579;28;20467;-61
2022/01/24 05:43:21;;;;;;;15.10;7.07;;;-1.30;99.90;;;;;;5014488;28;20216;-62
2022/01/24 05:45:47;;;;;;;12.00;7.00;;;-1.30;99.90;;;;;;5017975;28;20438;-60
2022/01/24 05:48:13;;;;;;;10.73;7.10;;;-1.30;99.90;;;;;;5022543;28;20182;-62
2022/01/24 05:50:38;;;;;;;12.97;6.40;;;-1.40;99.90;;;;;;5023355;28;20441;-62
2022/01/24 05:53:04;;;;;;;13.60;8.60;;;-1.40;99.90;;;;;;5027358;28;20289;-61
2022/01/24 05:55:30;;;;;;;13.40;7.50;;;-1.40;99.90;;;;;;5029454;28;20174;-61
2022/01/24 05:57:56;;;;;;;10.77;7.43;;;-1.40;99.90;;;;;;5028474;28;20247;-61
2022/01/24 06:00:22;;;;;;;12.87;7.50;;;-1.40;99.90;;;;;;5028343;28;20547;-61
2022/01/24 06:02:48;;;;;;;14.60;8.17;;;-1.40;99.90;;;;;;5020567;28;20200;-61
2022/01/24 06:05:14;;;;;;;14.30;7.97;;;-1.40;99.90;;;;;;5024143;28;20439;-61
2022/01/24 06:07:40;;;;;;;14.23;7.70;;;-1.40;99.90;;;;;;5033488;28;20435;-62
2022/01/24 06:10:07;;;;;;;14.50;8.27;;;-1.40;99.90;;;;;;5028040;28;20569;-59
2022/01/24 06:12:33;;;;;;;16.20;8.60;;;-1.40;99.90;;;;;;5036707;28;20698;-61
2022/01/24 06:14:59;;;;;;;15.43;8.77;;;-1.50;99.90;;;;;;5028241;28;20426;-61
2022/01/24 06:17:24;;;;;;;15.80;8.37;;;-1.50;99.90;;;;;;5029189;28;20434;-61
2022/01/24 06:19:50;;;;;;;13.40;8.10;;;-1.50;99.90;;;;;;5032866;28;20177;-60
2022/01/24 06:22:16;;;;;;;16.20;8.17;;;-1.50;99.90;;;;;;5024596;28;20214;-61
2022/01/24 06:24:41;;;;;;;16.77;9.23;;;-1.60;99.90;;;;;;5026997;28;20192;-59
2022/01/24 06:27:07;;;;;;;13.23;8.27;;;-1.60;99.90;;;;;;5025455;28;20353;-61
2022/01/24 06:29:33;;;;;;;17.77;9.47;;;-1.60;99.90;;;;;;5020576;28;20185;-61
2022/01/24 06:31:59;;;;;;;14.83;9.00;;;-1.60;99.90;;;;;;5022517;28;20266;-60
2022/01/24 06:34:24;;;;;;;18.03;9.50;;;-1.60;99.90;;;;;;5019442;28;20628;-61
2022/01/24 06:36:50;;;;;;;16.47;9.23;;;-1.60;99.90;;;;;;5025207;28;20173;-61
2022/01/24 06:39:15;;;;;;;20.10;9.40;;;-1.70;99.90;;;;;;5018761;28;20178;-62
2022/01/24 06:41:43;;;;;;;16.47;8.70;;;-1.70;99.90;;;;;;5033713;28;20669;-62
2022/01/24 06:44:09;;;;;;;14.10;8.43;;;-1.70;99.90;;;;;;5017781;28;20291;-61
2022/01/24 06:46:35;;;;;;;18.33;9.90;;;-1.70;99.90;;;;;;5019130;28;20463;-61
2022/01/24 06:49:01;;;;;;;14.33;8.50;;;-1.70;99.90;;;;;;5027417;28;20582;-61
2022/01/24 06:51:27;;;;;;;17.00;8.80;;;-1.80;99.90;;;;;;5023842;28;20469;-61
2022/01/24 06:53:53;;;;;;;23.10;8.70;;;-1.80;99.90;;;;;;5027200;28;20435;-62
2022/01/24 06:56:19;;;;;;;14.93;8.73;;;-1.80;99.90;;;;;;5023088;28;20524;-62
2022/01/24 06:58:45;;;;;;;18.07;9.80;;;-1.80;99.90;;;;;;5025506;28;20519;-61
2022/01/24 07:01:10;;;;;;;12.70;7.83;;;-1.80;99.90;;;;;;5029279;28;20184;-62
2022/01/24 07:03:36;;;;;;;11.90;7.90;;;-1.80;99.90;;;;;;5024936;28;20212;-62
2022/01/24 07:06:02;;;;;;;16.87;8.73;;;-1.80;99.90;;;;;;5023928;28;20707;-62
2022/01/24 07:08:28;;;;;;;15.00;9.30;;;-1.80;99.90;;;;;;5018059;28;20188;-61
2022/01/24 07:10:54;;;;;;;21.23;9.80;;;-1.80;99.90;;;;;;5024347;28;20444;-61
2022/01/24 07:13:21;;;;;;;17.40;9.20;;;-1.80;99.90;;;;;;5022456;28;20494;-62
2022/01/24 07:15:59;;;;;;;22.30;9.20;;;-1.80;99.90;;;;;;5022541;28;20992;-63
2022/01/24 07:20:55;;;;;;;15.10;8.30;;;-1.70;99.90;;;;;;5036555;28;20454;-61
2022/01/24 07:23:20;;;;;;;14.17;8.17;;;-1.80;99.90;;;;;;5018964;28;21227;-62
2022/01/24 07:25:46;;;;;;;15.83;8.50;;;-1.80;99.90;;;;;;5021572;28;20434;-61
2022/01/24 07:28:13;;;;;;;15.03;8.33;;;-1.80;99.90;;;;;;5020443;28;20193;-62
2022/01/24 07:30:39;;;;;;;16.20;8.40;;;-1.70;99.90;;;;;;5024026;28;20189;-61
2022/01/24 07:33:05;;;;;;;14.13;8.30;;;-1.70;99.90;;;;;;5020343;28;20448;-62
2022/01/24 07:35:31;;;;;;;20.20;8.73;;;-1.60;99.90;;;;;;5023780;28;20205;-62
2022/01/24 07:37:57;;;;;;;17.87;8.93;;;-1.60;99.90;;;;;;5025712;28;20191;-61
2022/01/24 07:40:22;;;;;;;19.33;10.67;;;-1.60;99.90;;;;;;5019901;28;20222;-62
2022/01/24 07:45:18;;;;;;;18.90;9.50;;;-1.50;99.90;;;;;;5027837;28;20239;-62
2022/01/24 07:47:44;;;;;;;20.20;11.20;;;-1.50;99.90;;;;;;5028367;28;20424;-63
2022/01/24 07:50:11;;;;;;;22.60;11.10;;;-1.40;99.90;;;;;;5020081;28;20848;-62
2022/01/24 07:52:36;;;;;;;21.80;13.10;;;-1.40;99.90;;;;;;5026253;28;20472;-62
2022/01/24 07:55:03;;;;;;;20.87;10.73;;;-1.30;99.90;;;;;;5028298;28;20764;-62
2022/01/24 07:57:28;;;;;;;19.53;10.27;;;-1.30;99.90;;;;;;5026513;28;20202;-62
2022/01/24 07:59:54;;;;;;;19.30;10.60;;;-1.20;99.90;;;;;;5023516;28;20549;-61
2022/01/24 08:02:20;;;;;;;30.83;12.70;;;-1.20;99.90;;;;;;5024824;28;20208;-62
2022/01/24 08:04:45;;;;;;;30.70;14.97;;;-1.20;99.90;;;;;;5023613;28;20183;-60
2022/01/24 08:07:11;;;;;;;29.43;15.73;;;-1.10;99.90;;;;;;5023372;28;20273;-62
2022/01/24 08:09:37;;;;;;;25.40;13.33;;;-1.10;99.90;;;;;;5022891;28;20182;-62
2022/01/24 08:12:05;;;;;;;27.07;13.00;;;-1.00;99.90;;;;;;5020679;28;20562;-62
2022/01/24 08:14:31;;;;;;;20.77;11.53;;;-1.00;99.90;;;;;;5029220;28;20444;-61
2022/01/24 08:16:57;;;;;;;21.63;11.77;;;-0.90;99.90;;;;;;5025629;28;20936;-61
2022/01/24 08:19:23;;;;;;;19.07;10.80;;;-0.80;99.90;;;;;;5020523;28;20435;-60
2022/01/24 08:21:48;;;;;;;24.47;12.13;;;-0.70;99.90;;;;;;5025928;28;20244;-62
2022/01/24 08:24:14;;;;;;;22.30;11.00;;;-0.60;99.90;;;;;;5028615;28;20439;-60
2022/01/24 08:26:40;;;;;;;20.00;11.40;;;-0.50;99.90;;;;;;5021090;28;20193;-62
2022/01/24 08:29:06;;;;;;;18.97;10.00;;;-0.40;99.90;;;;;;5024613;28;20186;-61
2022/01/24 08:31:32;;;;;;;17.13;9.17;;;-0.30;99.90;;;;;;5026619;28;20213;-61
2022/01/24 08:33:58;;;;;;;18.63;10.27;;;-0.20;99.90;;;;;;5024342;28;20472;-62
2022/01/24 08:36:24;;;;;;;19.07;11.27;;;-0.10;99.90;;;;;;5021952;28;20532;-62
2022/01/24 08:38:51;;;;;;;18.50;10.73;;;-0.10;99.90;;;;;;5019935;28;20185;-62
2022/01/24 08:41:26;;;;;;;21.17;10.83;;;0.10;99.90;;;;;;5024481;28;20437;-62
2022/01/24 08:43:59;;;;;;;18.50;9.60;;;0.10;99.90;;;;;;5026999;28;20443;-62
2022/01/24 08:46:25;;;;;;;20.27;10.70;;;0.20;99.90;;;;;;5024272;28;20424;-62
2022/01/24 08:48:50;;;;;;;18.87;10.33;;;0.30;99.90;;;;;;5031264;28;20556;-61
2022/01/24 08:51:17;;;;;;;20.10;11.00;;;0.30;99.90;;;;;;5031804;28;20631;-62
2022/01/24 08:53:43;;;;;;;18.47;10.03;;;0.40;99.90;;;;;;5023381;28;20564;-62
2022/01/24 08:56:11;;;;;;;21.20;11.53;;;0.40;99.90;;;;;;5022223;28;20436;-60
2022/01/24 08:58:37;;;;;;;22.10;11.27;;;0.50;99.90;;;;;;5012669;28;20250;-61
2022/01/24 09:01:04;;;;;;;22.43;10.80;;;0.50;99.90;;;;;;5024566;28;20437;-61
2022/01/24 09:03:35;;;;;;;18.53;10.97;;;0.50;99.90;;;;;;5030256;28;20449;-61
2022/01/24 09:06:01;;;;;;;22.97;11.90;;;0.60;99.90;;;;;;5026167;28;20875;-61
2022/01/24 09:08:27;;;;;;;18.20;10.93;;;0.70;99.90;;;;;;5027200;28;20606;-60
2022/01/24 09:10:53;;;;;;;21.00;11.20;;;0.70;99.90;;;;;;5026675;28;20449;-60
2022/01/24 09:13:19;;;;;;;20.70;11.23;;;0.80;99.90;;;;;;5023419;28;20202;-60
2022/01/24 09:15:45;;;;;;;24.03;11.60;;;0.80;99.90;;;;;;5027443;28;20265;-61
2022/01/24 09:18:11;;;;;;;17.50;10.50;;;0.90;99.90;;;;;;5025456;28;20202;-61
2022/01/24 09:20:41;;;;;;;18.53;10.50;;;0.90;99.90;;;;;;5028115;28;20477;-60
2022/01/24 09:23:08;;;;;;;15.60;9.37;;;1.00;99.90;;;;;;5025550;28;20280;-61
2022/01/24 09:25:35;;;;;;;15.70;8.90;;;1.00;99.90;;;;;;5031892;28;20826;-60
2022/01/24 09:28:01;;;;;;;21.50;11.03;;;1.10;99.90;;;;;;5034269;28;20506;-61
2022/01/24 09:30:26;;;;;;;18.90;10.37;;;1.20;99.90;;;;;;5027207;28;20718;-61
2022/01/24 09:32:52;;;;;;;16.70;10.57;;;1.20;99.90;;;;;;5031484;28;20218;-61
2022/01/24 09:35:20;;;;;;;19.00;10.00;;;1.30;99.90;;;;;;5028402;28;20185;-60
2022/01/24 09:37:47;;;;;;;19.50;10.23;;;1.40;99.90;;;;;;5024262;28;20236;-61
2022/01/24 09:40:15;;;;;;;15.07;9.47;;;1.40;99.90;;;;;;5028104;28;20457;-61
2022/01/24 09:42:43;;;;;;;14.67;8.80;;;1.50;99.90;;;;;;5024494;28;20456;-61
2022/01/24 09:45:10;;;;;;;38.23;11.40;;;1.60;99.90;;;;;;5026531;28;20477;-61
2022/01/24 09:47:36;;;;;;;20.73;10.10;;;1.70;99.90;;;;;;5023502;28;20979;-61
2022/01/24 09:50:06;;;;;;;19.63;10.87;;;1.80;99.90;;;;;;5024072;28;20435;-60
2022/01/24 09:52:32;;;;;;;16.43;10.30;;;1.80;99.90;;;;;;5021033;28;20459;-59
2022/01/24 09:54:58;;;;;;;14.80;9.60;;;1.90;99.90;;;;;;5020641;28;20438;-61
2022/01/24 09:57:23;;;;;;;14.50;9.53;;;1.90;99.90;;;;;;5023387;28;20488;-61
2022/01/24 09:59:49;;;;;;;19.00;9.70;;;1.90;99.90;;;;;;5021774;28;20183;-60
2022/01/24 10:02:15;;;;;;;14.63;8.97;;;2.00;99.90;;;;;;5023074;28;20210;-61
2022/01/24 10:04:41;;;;;;;15.37;9.47;;;2.00;99.90;;;;;;5022751;28;20527;-61
2022/01/24 10:07:13;;;;;;;14.73;9.10;;;2.00;99.90;;;;;;5020095;28;20183;-62
2022/01/24 10:09:46;;;;;;;12.90;8.00;;;2.10;99.90;;;;;;5020186;28;20555;-61
2022/01/24 10:18:08;;;;;;;15.50;9.13;;;2.40;99.90;;;;;;5017207;28;20457;-61
2022/01/24 10:20:36;;;;;;;14.83;9.10;;;2.50;99.90;;;;;;5020417;28;20432;-62
2022/01/24 10:23:13;;;;;;;16.03;9.57;;;2.40;99.90;;;;;;5022435;28;20484;-61
2022/01/24 10:26:02;;;;;;;15.60;8.70;;;2.30;99.90;;;;;;5024991;28;20946;-60
2022/01/24 10:28:34;;;;;;;14.80;9.27;;;2.20;99.90;;;;;;5029416;28;20443;-60
2022/01/24 10:31:02;;;;;;;14.20;8.50;;;2.20;99.90;;;;;;5026532;28;20441;-60
2022/01/24 10:33:28;;;;;;;24.43;14.50;;;2.20;99.90;;;;;;5030944;28;20438;-60
2022/01/24 10:35:54;;;;;;;19.07;10.87;;;2.20;99.90;;;;;;5031702;28;20414;-60
2022/01/24 10:41:10;;;;;;;16.93;10.10;;;2.10;99.90;;;;;;5025499;28;20214;-61
2022/01/24 10:43:40;;;;;;;16.10;9.47;;;2.10;99.90;;;;;;5019313;28;20450;-61
2022/01/24 10:46:07;;;;;;;19.27;11.17;;;2.10;99.90;;;;;;5026600;28;20429;-61
2022/01/24 10:48:44;;;;;;;16.57;9.20;;;2.10;99.90;;;;;;5024369;28;20434;-61
2022/01/24 10:51:15;;;;;;;16.03;9.27;;;2.20;99.90;;;;;;5023953;28;21177;-61
2022/01/24 10:53:48;;;;;;;14.13;8.67;;;2.20;99.90;;;;;;5022322;28;20532;-62
2022/01/24 10:56:24;;;;;;;15.20;9.60;;;2.30;99.90;;;;;;5030784;28;20445;-62
2022/01/24 10:58:51;;;;;;;14.10;8.53;;;2.40;99.90;;;;;;5036308;28;20436;-60
2022/01/24 11:01:22;;;;;;;16.17;9.03;;;2.50;99.90;;;;;;5023549;28;20799;-62
2022/01/24 11:04:01;;;;;;;16.57;10.03;;;2.60;99.90;;;;;;5024011;28;20462;-61
2022/01/24 11:06:33;;;;;;;16.67;9.70;;;2.80;99.90;;;;;;5027465;28;21008;-61
2022/01/24 11:09:19;;;;;;;15.67;9.10;;;3.00;99.90;;;;;;5022962;28;20423;-62
2022/01/24 11:11:46;;;;;;;14.27;8.73;;;3.30;98.20;;;;;;5023850;28;20681;-63
2022/01/24 11:14:16;;;;;;;17.37;9.47;;;3.50;96.70;;;;;;5024002;28;20528;-62
2022/01/24 11:16:42;;;;;;;13.83;8.63;;;3.80;95.10;;;;;;5025474;28;20515;-62
2022/01/24 11:19:15;;;;;;;13.67;8.70;;;4.00;91.50;;;;;;5022610;28;20427;-62
2022/01/24 11:21:44;;;;;;;14.97;8.70;;;4.10;89.00;;;;;;5022033;28;20446;-62
2022/01/24 11:24:10;;;;;;;13.67;8.90;;;4.20;86.40;;;;;;5020639;28;20434;-61
2022/01/24 11:26:37;;;;;;;17.23;9.07;;;4.50;85.60;;;;;;5018946;28;20451;-63
2022/01/24 11:29:04;;;;;;;16.13;9.13;;;4.70;83.20;;;;;;5024493;28;20516;-63
2022/01/24 11:31:43;;;;;;;14.50;8.50;;;4.80;76.70;;;;;;5030577;28;21034;-62
2022/01/24 11:34:17;;;;;;;14.80;8.77;;;5.00;74.30;;;;;;5017548;28;20452;-62
2022/01/24 11:36:44;;;;;;;16.03;9.13;;;5.10;73.30;;;;;;5022940;28;20929;-62
2022/01/24 11:39:11;;;;;;;15.70;8.97;;;5.30;71.30;;;;;;5022717;28;20985;-63
2022/01/24 11:41:39;;;;;;;15.67;9.97;;;5.40;70.70;;;;;;5023758;28;20464;-62
2022/01/24 11:44:12;;;;;;;19.77;11.60;;;5.60;70.70;;;;;;5018818;28;20446;-63
2022/01/24 11:46:47;;;;;;;19.00;11.37;;;5.90;69.60;;;;;;5021235;28;20442;-62
2022/01/24 11:49:36;;;;;;;19.57;12.17;;;6.10;67.50;;;;;;5021040;28;20801;-60
2022/01/24 11:52:06;;;;;;;18.47;11.13;;;6.30;66.00;;;;;;5019977;28;20561;-61
2022/01/24 11:54:45;;;;;;;20.07;11.37;;;6.40;63.00;;;;;;5018970;28;20426;-63
2022/01/24 11:57:34;;;;;;;19.97;11.83;;;6.40;63.20;;;;;;5022277;28;20557;-62
2022/01/24 12:00:04;;;;;;;18.27;10.70;;;6.40;63.10;;;;;;5010615;28;20949;-63
2022/01/24 12:02:51;;;;;;;19.83;11.20;;;6.50;62.30;;;;;;5019376;28;20744;-62
2022/01/24 12:05:42;;;;;;;21.00;12.37;;;6.40;61.30;;;;;;5021544;28;20461;-61
2022/01/24 12:08:10;;;;;;;21.23;12.10;;;6.40;61.50;;;;;;5027742;28;20438;-62
2022/01/24 12:10:40;;;;;;;19.17;11.53;;;6.40;62.10;;;;;;5030658;28;20426;-61
2022/01/24 12:13:35;;;;;;;19.40;12.17;;;6.50;61.30;;;;;;5028998;28;20989;-62
2022/01/24 12:16:04;;;;;;;23.63;12.00;;;6.70;60.20;;;;;;5028663;28;20422;-62
2022/01/24 12:18:30;;;;;;;22.00;12.93;;;6.70;59.90;;;;;;5030656;28;20548;-61
2022/01/24 12:21:06;;;;;;;22.40;12.23;;;6.40;59.80;;;;;;5028455;28;20430;-61
2022/01/24 12:23:33;;;;;;;22.80;12.50;;;6.20;60.80;;;;;;5030164;28;20240;-60
2022/01/24 12:26:00;;;;;;;21.33;12.67;;;6.30;61.80;;;;;;5030461;28;20435;-61
2022/01/24 12:28:32;;;;;;;24.60;13.80;;;6.40;61.90;;;;;;5029110;28;20438;-62
2022/01/24 12:31:20;;;;;;;18.60;12.20;;;6.50;61.30;;;;;;5041734;28;20545;-62
2022/01/24 12:33:54;;;;;;;25.07;13.53;;;6.10;60.60;;;;;;5030373;28;20504;-61
2022/01/24 12:36:46;;;;;;;21.33;12.73;;;5.70;61.70;;;;;;5024163;28;20681;-61
2022/01/24 12:39:46;;;;;;;21.07;13.40;;;5.30;65.40;;;;;;5028460;28;20427;-61
2022/01/24 12:42:20;;;;;;;20.80;13.07;;;5.00;67.40;;;;;;5020362;28;20478;-61
2022/01/24 12:47:21;;;;;;;19.87;12.97;;;4.80;71.70;;;;;;5033103;28;20446;-62
2022/01/24 12:49:48;;;;;;;23.10;12.27;;;4.60;72.50;;;;;;5028364;28;20438;-62
2022/01/24 12:52:17;;;;;;;19.57;12.20;;;4.50;71.50;;;;;;5030606;28;20470;-61
2022/01/24 12:55:02;;;;;;;22.33;12.10;;;4.40;72.80;;;;;;5027596;28;20430;-61
2022/01/24 12:57:37;;;;;;;18.90;11.80;;;4.30;74.00;;;;;;5024494;28;20533;-61
2022/01/24 13:00:10;;;;;;;21.27;11.47;;;4.20;76.30;;;;;;5012246;28;20670;-59
2022/01/24 13:02:38;;;;;;;24.63;10.93;;;4.20;77.40;;;;;;5021653;28;20457;-61
2022/01/24 13:05:04;;;;;;;19.90;10.47;;;4.30;77.80;;;;;;5022637;28;20927;-61
2022/01/24 13:07:31;;;;;;;21.07;12.07;;;4.30;77.60;;;;;;5025564;28;20452;-61
2022/01/24 13:10:10;;;;;;;22.13;12.83;;;4.30;76.60;;;;;;5021311;28;20246;-62
2022/01/24 13:12:37;;;;;;;25.27;11.83;;;4.30;78.40;;;;;;5021343;28;20673;-62
2022/01/24 13:15:06;;;;;;;18.47;10.67;;;4.30;79.00;;;;;;5025692;28;20429;-61
2022/01/24 13:23:09;;;;;;;14.00;8.60;;;4.50;77.70;;;;;;5019392;28;20879;-59
2022/01/24 13:25:37;;;;;;;14.10;8.23;;;4.50;75.80;;;;;;5024027;28;21008;-59
2022/01/24 13:28:21;;;;;;;13.10;8.03;;;4.60;74.80;;;;;;5021496;28;20439;-61
2022/01/24 13:30:59;;;;;;;16.07;9.50;;;4.70;73.20;;;;;;5022996;28;20806;-61
2022/01/24 13:33:26;;;;;;;17.67;10.80;;;4.70;72.50;;;;;;5016091;28;20497;-61
2022/01/24 13:35:55;;;;;;;15.40;8.67;;;4.90;73.10;;;;;;5020983;28;20717;-61
2022/01/24 13:38:28;;;;;;;13.13;8.60;;;5.10;72.00;;;;;;5017455;28;20434;-60
2022/01/24 13:41:03;;;;;;;15.70;9.00;;;5.30;69.90;;;;;;5019910;28;20450;-61
2022/01/24 13:43:46;;;;;;;13.93;8.30;;;5.50;67.70;;;;;;5018935;28;20717;-60
2022/01/24 13:46:29;;;;;;;13.30;8.20;;;5.70;66.10;;;;;;5016527;28;20585;-61
2022/01/24 13:49:05;;;;;;;13.57;8.47;;;5.90;64.60;;;;;;5019667;28;20680;-60
2022/01/24 13:51:35;;;;;;;17.13;9.60;;;6.10;63.70;;;;;;5038424;28;20468;-59
2022/01/24 13:54:03;;;;;;;13.07;8.03;;;6.30;63.00;;;;;;5020403;28;20525;-60
2022/01/24 13:56:32;;;;;;;14.97;8.30;;;6.50;61.80;;;;;;5023806;28;20426;-61
2022/01/24 13:59:11;;;;;;;13.03;8.10;;;6.70;60.80;;;;;;5022324;28;20628;-61
2022/01/24 14:01:53;;;;;;;13.17;7.80;;;6.90;60.30;;;;;;5019452;28;20445;-62
2022/01/24 14:04:31;;;;;;;13.30;7.60;;;7.40;59.20;;;;;;5019500;28;20497;-62
2022/01/24 14:07:03;;;;;;;12.77;7.33;;;8.00;57.80;;;;;;5018348;28;20820;-62
2022/01/24 14:09:35;;;;;;;11.03;6.80;;;8.50;56.40;;;;;;5014974;28;20684;-62
2022/01/24 14:12:01;;;;;;;14.80;8.17;;;8.80;55.30;;;;;;5024715;28;20485;-63
2022/01/24 14:14:37;;;;;;;10.67;7.47;;;9.00;54.30;;;;;;5019215;28;20430;-63
2022/01/24 14:19:36;;;;;;;11.57;8.37;;;9.00;52.70;;;;;;5021233;28;20549;-64
2022/01/24 14:22:03;;;;;;;12.97;8.17;;;8.70;53.20;;;;;;5020630;28;21262;-64
2022/01/24 14:24:46;;;;;;;41.03;8.83;;;8.30;53.50;;;;;;5024047;28;20211;-63
2022/01/24 14:27:13;;;;;;;11.20;7.70;;;7.80;54.00;;;;;;5017610;28;20430;-63
2022/01/24 14:29:39;;;;;;;13.90;8.17;;;7.30;54.70;;;;;;5018826;28;20998;-62
2022/01/24 14:32:13;;;;;;;18.47;9.00;;;6.90;55.50;;;;;;5022694;28;20891;-63
2022/01/24 14:34:39;;;;;;;15.10;9.67;;;6.50;56.20;;;;;;5024215;28;20615;-62
2022/01/24 14:37:06;;;;;;;19.70;10.67;;;6.10;57.20;;;;;;5021028;28;20517;-63
2022/01/24 14:39:44;;;;;;;17.93;10.40;;;5.90;58.20;;;;;;5023609;28;21005;-61